sensor_id;sensor_type;location;lat;lon;timestamp;P1;durP1;ratioP1;P2;durP2;ratioP2
67132;SDS011;54052;53.542;49.408;2022-10-16T00:00:28;4.00;;;2.10;;
67132;SDS011;54052;53.542;49.408;2022-10-16T00:02:59;7.22;;;2.08;;
67132;SDS011;54052;53.542;49.408;2022-10-16T00:05:31;4.38;;;2.00;;
67132;SDS011;54052;53.542;49.408;2022-10-16T00:08:02;5.93;;;1.63;;
67132;SDS011;54052;53.542;49.408;2022-10-16T00:10:34;6.93;;;1.80;;
67132;SDS011;54052;53.542;49.408;2022-10-16T00:13:06;6.25;;;1.75;;
67132;SDS011;54052;53.542;49.408;2022-10-16T00:15:37;5.60;;;2.00;;
67132;SDS011;54052;53.542;49.408;2022-10-16T00:18:09;3.83;;;1.40;;
67132;SDS011;54052;53.542;49.408;2022-10-16T00:20:41;5.07;;;1.20;;
67132;SDS011;54052;53.542;49.408;2022-10-16T00:23:12;3.38;;;1.33;;
67132;SDS011;54052;53.542;49.408;2022-10-16T00:25:43;5.15;;;1.40;;
67132;SDS011;54052;53.542;49.408;2022-10-16T00:28:15;3.00;;;1.50;;
67132;SDS011;54052;53.542;49.408;2022-10-16T00:30:46;3.08;;;1.38;;
67132;SDS011;54052;53.542;49.408;2022-10-16T00:33:17;3.28;;;1.10;;
67132;SDS011;54052;53.542;49.408;2022-10-16T00:35:49;4.65;;;1.92;;
67132;SDS011;54052;53.542;49.408;2022-10-16T00:38:20;2.25;;;1.17;;
67132;SDS011;54052;53.542;49.408;2022-10-16T00:40:52;5.53;;;1.52;;
67132;SDS011;54052;53.542;49.408;2022-10-16T00:46:29;7.72;;;1.40;;
67132;SDS011;54052;53.542;49.408;2022-10-16T00:49:10;3.83;;;1.00;;
67132;SDS011;54052;53.542;49.408;2022-10-16T00:51:46;7.78;;;1.55;;
67132;SDS011;54052;53.542;49.408;2022-10-16T00:54:24;8.63;;;1.48;;
67132;SDS011;54052;53.542;49.408;2022-10-16T00:57:02;3.40;;;1.70;;
67132;SDS011;54052;53.542;49.408;2022-10-16T00:59:37;3.58;;;1.65;;
67132;SDS011;54052;53.542;49.408;2022-10-16T01:02:12;6.70;;;1.77;;
67132;SDS011;54052;53.542;49.408;2022-10-16T01:04:46;4.72;;;1.55;;
67132;SDS011;54052;53.542;49.408;2022-10-16T01:07:45;5.15;;;1.60;;
67132;SDS011;54052;53.542;49.408;2022-10-16T01:10:29;6.82;;;1.67;;
67132;SDS011;54052;53.542;49.408;2022-10-16T01:13:06;3.83;;;2.10;;
67132;SDS011;54052;53.542;49.408;2022-10-16T01:18:46;5.10;;;2.05;;
67132;SDS011;54052;53.542;49.408;2022-10-16T01:21:29;9.45;;;2.70;;
67132;SDS011;54052;53.542;49.408;2022-10-16T01:24:12;8.32;;;2.92;;
67132;SDS011;54052;53.542;49.408;2022-10-16T01:27:13;8.70;;;3.00;;
67132;SDS011;54052;53.542;49.408;2022-10-16T01:29:52;6.90;;;2.47;;
67132;SDS011;54052;53.542;49.408;2022-10-16T01:37:59;6.25;;;2.22;;
67132;SDS011;54052;53.542;49.408;2022-10-16T01:40:38;7.85;;;2.25;;
67132;SDS011;54052;53.542;49.408;2022-10-16T01:43:20;3.60;;;1.50;;
67132;SDS011;54052;53.542;49.408;2022-10-16T01:45:55;10.25;;;1.80;;
67132;SDS011;54052;53.542;49.408;2022-10-16T01:48:28;19.38;;;2.33;;
67132;SDS011;54052;53.542;49.408;2022-10-16T01:51:06;5.32;;;1.58;;
67132;SDS011;54052;53.542;49.408;2022-10-16T01:53:41;5.70;;;1.33;;
67132;SDS011;54052;53.542;49.408;2022-10-16T01:56:16;6.07;;;1.30;;
67132;SDS011;54052;53.542;49.408;2022-10-16T01:58:57;11.60;;;1.90;;
67132;SDS011;54052;53.542;49.408;2022-10-16T02:01:33;5.72;;;1.42;;
67132;SDS011;54052;53.542;49.408;2022-10-16T02:04:29;3.50;;;1.25;;
67132;SDS011;54052;53.542;49.408;2022-10-16T02:07:00;8.73;;;1.48;;
67132;SDS011;54052;53.542;49.408;2022-10-16T02:09:32;3.63;;;1.48;;
67132;SDS011;54052;53.542;49.408;2022-10-16T02:12:10;4.18;;;1.40;;
67132;SDS011;54052;53.542;49.408;2022-10-16T02:14:46;4.10;;;1.20;;
67132;SDS011;54052;53.542;49.408;2022-10-16T02:17:17;7.55;;;1.38;;
67132;SDS011;54052;53.542;49.408;2022-10-16T02:19:49;14.90;;;2.13;;
67132;SDS011;54052;53.542;49.408;2022-10-16T02:22:34;4.45;;;1.17;;
67132;SDS011;54052;53.542;49.408;2022-10-16T02:25:15;3.47;;;1.20;;
67132;SDS011;54052;53.542;49.408;2022-10-16T02:28:09;8.13;;;1.50;;
67132;SDS011;54052;53.542;49.408;2022-10-16T02:33:30;2.60;;;1.20;;
67132;SDS011;54052;53.542;49.408;2022-10-16T02:36:02;3.63;;;1.00;;
67132;SDS011;54052;53.542;49.408;2022-10-16T02:38:34;16.00;;;1.63;;
67132;SDS011;54052;53.542;49.408;2022-10-16T02:41:07;6.35;;;1.23;;
67132;SDS011;54052;53.542;49.408;2022-10-16T02:43:39;3.53;;;1.40;;
67132;SDS011;54052;53.542;49.408;2022-10-16T02:46:10;7.90;;;1.13;;
67132;SDS011;54052;53.542;49.408;2022-10-16T02:48:42;5.82;;;1.33;;
67132;SDS011;54052;53.542;49.408;2022-10-16T02:51:13;4.75;;;0.95;;
67132;SDS011;54052;53.542;49.408;2022-10-16T02:53:44;5.18;;;1.70;;
67132;SDS011;54052;53.542;49.408;2022-10-16T02:56:16;9.65;;;1.20;;
67132;SDS011;54052;53.542;49.408;2022-10-16T02:58:47;3.75;;;1.55;;
67132;SDS011;54052;53.542;49.408;2022-10-16T03:01:18;4.85;;;1.35;;
67132;SDS011;54052;53.542;49.408;2022-10-16T03:03:50;3.67;;;0.98;;
67132;SDS011;54052;53.542;49.408;2022-10-16T03:06:21;5.30;;;0.90;;
67132;SDS011;54052;53.542;49.408;2022-10-16T03:08:52;1.80;;;1.02;;
67132;SDS011;54052;53.542;49.408;2022-10-16T03:11:24;6.60;;;0.90;;
67132;SDS011;54052;53.542;49.408;2022-10-16T03:13:55;2.38;;;1.00;;
67132;SDS011;54052;53.542;49.408;2022-10-16T03:16:26;4.20;;;0.90;;
67132;SDS011;54052;53.542;49.408;2022-10-16T03:18:58;4.40;;;0.93;;
67132;SDS011;54052;53.542;49.408;2022-10-16T03:21:29;3.90;;;0.80;;
67132;SDS011;54052;53.542;49.408;2022-10-16T03:24:00;1.42;;;0.70;;
67132;SDS011;54052;53.542;49.408;2022-10-16T03:26:32;3.97;;;0.70;;
67132;SDS011;54052;53.542;49.408;2022-10-16T03:29:03;13.75;;;0.90;;
67132;SDS011;54052;53.542;49.408;2022-10-16T03:31:35;5.85;;;1.17;;
67132;SDS011;54052;53.542;49.408;2022-10-16T03:34:06;24.25;;;1.17;;
67132;SDS011;54052;53.542;49.408;2022-10-16T03:36:37;3.50;;;0.80;;
67132;SDS011;54052;53.542;49.408;2022-10-16T03:39:09;10.15;;;1.00;;
67132;SDS011;54052;53.542;49.408;2022-10-16T03:41:40;11.30;;;1.20;;
67132;SDS011;54052;53.542;49.408;2022-10-16T03:44:12;3.53;;;1.10;;
67132;SDS011;54052;53.542;49.408;2022-10-16T03:46:43;14.43;;;1.10;;
67132;SDS011;54052;53.542;49.408;2022-10-16T03:49:15;4.93;;;1.10;;
67132;SDS011;54052;53.542;49.408;2022-10-16T03:51:46;6.28;;;1.90;;
67132;SDS011;54052;53.542;49.408;2022-10-16T03:54:17;5.80;;;1.45;;
67132;SDS011;54052;53.542;49.408;2022-10-16T03:56:49;25.35;;;1.30;;
67132;SDS011;54052;53.542;49.408;2022-10-16T03:59:20;8.27;;;1.58;;
67132;SDS011;54052;53.542;49.408;2022-10-16T04:01:51;5.15;;;1.58;;
67132;SDS011;54052;53.542;49.408;2022-10-16T04:04:23;10.93;;;1.30;;
67132;SDS011;54052;53.542;49.408;2022-10-16T04:06:55;7.93;;;1.35;;
67132;SDS011;54052;53.542;49.408;2022-10-16T04:09:27;10.38;;;1.80;;
67132;SDS011;54052;53.542;49.408;2022-10-16T04:11:58;5.10;;;1.35;;
67132;SDS011;54052;53.542;49.408;2022-10-16T04:14:29;2.17;;;1.30;;
67132;SDS011;54052;53.542;49.408;2022-10-16T04:17:01;5.63;;;1.50;;
67132;SDS011;54052;53.542;49.408;2022-10-16T04:19:32;5.82;;;1.40;;
67132;SDS011;54052;53.542;49.408;2022-10-16T04:22:04;9.85;;;1.40;;
67132;SDS011;54052;53.542;49.408;2022-10-16T04:24:35;6.72;;;1.40;;
67132;SDS011;54052;53.542;49.408;2022-10-16T04:27:06;2.85;;;1.17;;
67132;SDS011;54052;53.542;49.408;2022-10-16T04:29:38;6.78;;;1.25;;
67132;SDS011;54052;53.542;49.408;2022-10-16T04:32:09;2.58;;;1.35;;
67132;SDS011;54052;53.542;49.408;2022-10-16T04:34:40;6.47;;;1.30;;
67132;SDS011;54052;53.542;49.408;2022-10-16T04:37:12;3.15;;;1.38;;
67132;SDS011;54052;53.542;49.408;2022-10-16T04:39:43;3.13;;;1.15;;
67132;SDS011;54052;53.542;49.408;2022-10-16T04:42:15;3.80;;;1.17;;
67132;SDS011;54052;53.542;49.408;2022-10-16T04:44:46;5.22;;;1.20;;
67132;SDS011;54052;53.542;49.408;2022-10-16T04:47:18;6.85;;;1.00;;
67132;SDS011;54052;53.542;49.408;2022-10-16T04:49:49;11.85;;;1.40;;
67132;SDS011;54052;53.542;49.408;2022-10-16T04:52:20;4.30;;;1.00;;
67132;SDS011;54052;53.542;49.408;2022-10-16T04:54:55;1.98;;;1.08;;
67132;SDS011;54052;53.542;49.408;2022-10-16T04:57:31;7.40;;;1.33;;
67132;SDS011;54052;53.542;49.408;2022-10-16T05:00:04;2.67;;;0.90;;
67132;SDS011;54052;53.542;49.408;2022-10-16T05:02:36;8.73;;;0.98;;
67132;SDS011;54052;53.542;49.408;2022-10-16T05:05:07;3.08;;;0.88;;
67132;SDS011;54052;53.542;49.408;2022-10-16T05:07:39;3.22;;;0.90;;
67132;SDS011;54052;53.542;49.408;2022-10-16T05:10:10;8.77;;;1.25;;
67132;SDS011;54052;53.542;49.408;2022-10-16T05:12:41;4.88;;;0.85;;
67132;SDS011;54052;53.542;49.408;2022-10-16T05:15:13;5.15;;;1.40;;
67132;SDS011;54052;53.542;49.408;2022-10-16T05:17:44;3.65;;;0.70;;
67132;SDS011;54052;53.542;49.408;2022-10-16T05:20:16;8.63;;;1.00;;
67132;SDS011;54052;53.542;49.408;2022-10-16T05:22:47;2.75;;;1.00;;
67132;SDS011;54052;53.542;49.408;2022-10-16T05:25:18;6.00;;;1.90;;
67132;SDS011;54052;53.542;49.408;2022-10-16T05:27:50;13.40;;;1.42;;
67132;SDS011;54052;53.542;49.408;2022-10-16T05:30:21;7.38;;;1.08;;
67132;SDS011;54052;53.542;49.408;2022-10-16T05:32:53;1.65;;;0.90;;
67132;SDS011;54052;53.542;49.408;2022-10-16T05:35:24;3.10;;;1.00;;
67132;SDS011;54052;53.542;49.408;2022-10-16T05:37:55;3.22;;;1.10;;
67132;SDS011;54052;53.542;49.408;2022-10-16T05:40:27;7.20;;;1.00;;
67132;SDS011;54052;53.542;49.408;2022-10-16T05:42:58;1.55;;;0.75;;
67132;SDS011;54052;53.542;49.408;2022-10-16T05:45:29;9.57;;;1.58;;
67132;SDS011;54052;53.542;49.408;2022-10-16T05:48:01;6.80;;;1.35;;
67132;SDS011;54052;53.542;49.408;2022-10-16T05:50:32;5.47;;;1.25;;
67132;SDS011;54052;53.542;49.408;2022-10-16T05:53:03;14.30;;;1.35;;
67132;SDS011;54052;53.542;49.408;2022-10-16T05:55:35;4.53;;;1.00;;
67132;SDS011;54052;53.542;49.408;2022-10-16T05:58:06;10.57;;;1.70;;
67132;SDS011;54052;53.542;49.408;2022-10-16T06:00:37;24.77;;;1.40;;
67132;SDS011;54052;53.542;49.408;2022-10-16T06:03:09;9.35;;;1.20;;
67132;SDS011;54052;53.542;49.408;2022-10-16T06:05:40;3.42;;;1.20;;
67132;SDS011;54052;53.542;49.408;2022-10-16T06:08:13;7.80;;;1.05;;
67132;SDS011;54052;53.542;49.408;2022-10-16T06:10:44;5.47;;;1.20;;
67132;SDS011;54052;53.542;49.408;2022-10-16T06:13:16;6.63;;;1.52;;
67132;SDS011;54052;53.542;49.408;2022-10-16T06:15:48;3.85;;;1.10;;
67132;SDS011;54052;53.542;49.408;2022-10-16T06:18:19;3.25;;;1.98;;
67132;SDS011;54052;53.542;49.408;2022-10-16T06:20:50;5.68;;;1.90;;
67132;SDS011;54052;53.542;49.408;2022-10-16T06:23:22;8.23;;;1.48;;
67132;SDS011;54052;53.542;49.408;2022-10-16T06:25:55;5.88;;;2.13;;
67132;SDS011;54052;53.542;49.408;2022-10-16T06:28:38;2.65;;;1.10;;
67132;SDS011;54052;53.542;49.408;2022-10-16T06:31:11;2.85;;;0.95;;
67132;SDS011;54052;53.542;49.408;2022-10-16T06:33:43;3.40;;;1.08;;
67132;SDS011;54052;53.542;49.408;2022-10-16T06:36:16;2.53;;;1.13;;
67132;SDS011;54052;53.542;49.408;2022-10-16T06:38:48;5.70;;;1.13;;
67132;SDS011;54052;53.542;49.408;2022-10-16T06:41:21;7.88;;;1.00;;
67132;SDS011;54052;53.542;49.408;2022-10-16T06:43:53;14.27;;;2.15;;
67132;SDS011;54052;53.542;49.408;2022-10-16T06:46:25;3.13;;;1.20;;
67132;SDS011;54052;53.542;49.408;2022-10-16T06:48:57;3.20;;;1.02;;
67132;SDS011;54052;53.542;49.408;2022-10-16T06:51:28;2.05;;;1.30;;
67132;SDS011;54052;53.542;49.408;2022-10-16T06:54:01;6.45;;;1.10;;
67132;SDS011;54052;53.542;49.408;2022-10-16T06:56:34;1.73;;;1.03;;
67132;SDS011;54052;53.542;49.408;2022-10-16T06:59:07;3.75;;;1.13;;
67132;SDS011;54052;53.542;49.408;2022-10-16T07:01:38;2.25;;;1.33;;
67132;SDS011;54052;53.542;49.408;2022-10-16T07:04:09;1.70;;;1.08;;
67132;SDS011;54052;53.542;49.408;2022-10-16T07:06:41;3.03;;;1.80;;
67132;SDS011;54052;53.542;49.408;2022-10-16T07:09:12;7.28;;;2.03;;
67132;SDS011;54052;53.542;49.408;2022-10-16T07:11:43;3.05;;;1.20;;
67132;SDS011;54052;53.542;49.408;2022-10-16T07:14:16;2.63;;;0.90;;
67132;SDS011;54052;53.542;49.408;2022-10-16T07:16:49;5.88;;;1.27;;
67132;SDS011;54052;53.542;49.408;2022-10-16T07:19:20;5.47;;;1.40;;
67132;SDS011;54052;53.542;49.408;2022-10-16T07:21:52;1.88;;;0.70;;
67132;SDS011;54052;53.542;49.408;2022-10-16T07:24:23;3.17;;;0.73;;
67132;SDS011;54052;53.542;49.408;2022-10-16T07:26:55;2.33;;;0.95;;
67132;SDS011;54052;53.542;49.408;2022-10-16T07:29:26;3.22;;;0.80;;
67132;SDS011;54052;53.542;49.408;2022-10-16T07:31:58;3.83;;;1.05;;
67132;SDS011;54052;53.542;49.408;2022-10-16T07:34:29;3.55;;;1.15;;
67132;SDS011;54052;53.542;49.408;2022-10-16T07:37:00;5.03;;;1.00;;
67132;SDS011;54052;53.542;49.408;2022-10-16T07:39:32;7.50;;;1.33;;
67132;SDS011;54052;53.542;49.408;2022-10-16T07:42:03;2.22;;;0.98;;
67132;SDS011;54052;53.542;49.408;2022-10-16T07:44:35;4.57;;;0.90;;
67132;SDS011;54052;53.542;49.408;2022-10-16T07:47:07;4.65;;;1.45;;
67132;SDS011;54052;53.542;49.408;2022-10-16T07:49:38;10.82;;;1.27;;
67132;SDS011;54052;53.542;49.408;2022-10-16T07:52:09;2.03;;;1.02;;
67132;SDS011;54052;53.542;49.408;2022-10-16T07:54:40;5.53;;;1.20;;
67132;SDS011;54052;53.542;49.408;2022-10-16T07:57:12;5.30;;;1.40;;
67132;SDS011;54052;53.542;49.408;2022-10-16T07:59:49;1.90;;;1.17;;
67132;SDS011;54052;53.542;49.408;2022-10-16T08:02:21;3.00;;;1.27;;
67132;SDS011;54052;53.542;49.408;2022-10-16T08:04:52;8.52;;;1.48;;
67132;SDS011;54052;53.542;49.408;2022-10-16T08:07:23;6.45;;;1.45;;
67132;SDS011;54052;53.542;49.408;2022-10-16T08:09:55;2.47;;;1.02;;
67132;SDS011;54052;53.542;49.408;2022-10-16T08:12:28;4.70;;;0.82;;
67132;SDS011;54052;53.542;49.408;2022-10-16T08:15:00;1.20;;;0.70;;
67132;SDS011;54052;53.542;49.408;2022-10-16T08:17:31;2.38;;;1.02;;
67132;SDS011;54052;53.542;49.408;2022-10-16T08:20:04;3.70;;;1.33;;
67132;SDS011;54052;53.542;49.408;2022-10-16T08:22:36;7.80;;;3.35;;
67132;SDS011;54052;53.542;49.408;2022-10-16T08:25:07;1.40;;;0.85;;
67132;SDS011;54052;53.542;49.408;2022-10-16T08:27:39;1.50;;;0.90;;
67132;SDS011;54052;53.542;49.408;2022-10-16T08:30:11;3.65;;;1.10;;
67132;SDS011;54052;53.542;49.408;2022-10-16T08:32:43;2.40;;;1.00;;
67132;SDS011;54052;53.542;49.408;2022-10-16T08:35:14;4.68;;;1.23;;
67132;SDS011;54052;53.542;49.408;2022-10-16T08:37:46;9.48;;;1.35;;
67132;SDS011;54052;53.542;49.408;2022-10-16T08:40:24;5.47;;;1.30;;
67132;SDS011;54052;53.542;49.408;2022-10-16T08:43:06;6.82;;;1.52;;
67132;SDS011;54052;53.542;49.408;2022-10-16T08:48:45;2.33;;;1.00;;
67132;SDS011;54052;53.542;49.408;2022-10-16T08:51:29;1.48;;;0.98;;
67132;SDS011;54052;53.542;49.408;2022-10-16T08:57:20;19.70;;;1.83;;
67132;SDS011;54052;53.542;49.408;2022-10-16T08:59:53;1.60;;;0.75;;
67132;SDS011;54052;53.542;49.408;2022-10-16T09:02:35;4.38;;;0.90;;
67132;SDS011;54052;53.542;49.408;2022-10-16T09:05:41;3.72;;;0.63;;
67132;SDS011;54052;53.542;49.408;2022-10-16T09:13:50;2.20;;;1.08;;
67132;SDS011;54052;53.542;49.408;2022-10-16T09:16:50;1.42;;;0.70;;
67132;SDS011;54052;53.542;49.408;2022-10-16T09:19:39;1.10;;;0.60;;
67132;SDS011;54052;53.542;49.408;2022-10-16T09:22:19;4.45;;;0.85;;
67132;SDS011;54052;53.542;49.408;2022-10-16T09:24:59;5.10;;;0.68;;
67132;SDS011;54052;53.542;49.408;2022-10-16T09:27:31;2.40;;;0.77;;
67132;SDS011;54052;53.542;49.408;2022-10-16T09:30:13;2.97;;;0.90;;
67132;SDS011;54052;53.542;49.408;2022-10-16T09:32:47;2.17;;;0.90;;
67132;SDS011;54052;53.542;49.408;2022-10-16T09:35:24;2.03;;;1.33;;
67132;SDS011;54052;53.542;49.408;2022-10-16T09:38:02;1.98;;;0.95;;
67132;SDS011;54052;53.542;49.408;2022-10-16T09:40:38;5.13;;;0.50;;
67132;SDS011;54052;53.542;49.408;2022-10-16T09:43:17;1.23;;;0.68;;
67132;SDS011;54052;53.542;49.408;2022-10-16T09:46:00;1.63;;;0.70;;
67132;SDS011;54052;53.542;49.408;2022-10-16T09:48:43;2.38;;;0.80;;
67132;SDS011;54052;53.542;49.408;2022-10-16T09:54:00;1.13;;;0.50;;
67132;SDS011;54052;53.542;49.408;2022-10-16T09:56:34;3.63;;;0.90;;
67132;SDS011;54052;53.542;49.408;2022-10-16T09:59:14;1.17;;;0.52;;
67132;SDS011;54052;53.542;49.408;2022-10-16T10:01:48;1.25;;;0.70;;
67132;SDS011;54052;53.542;49.408;2022-10-16T10:04:24;3.38;;;0.85;;
67132;SDS011;54052;53.542;49.408;2022-10-16T10:06:59;5.20;;;2.33;;
67132;SDS011;54052;53.542;49.408;2022-10-16T10:09:36;5.03;;;0.75;;
67132;SDS011;54052;53.542;49.408;2022-10-16T10:12:20;1.17;;;0.50;;
67132;SDS011;54052;53.542;49.408;2022-10-16T10:15:02;1.48;;;0.52;;
67132;SDS011;54052;53.542;49.408;2022-10-16T10:17:56;2.75;;;0.65;;
67132;SDS011;54052;53.542;49.408;2022-10-16T10:20:32;4.00;;;1.58;;
67132;SDS011;54052;53.542;49.408;2022-10-16T10:23:21;2.55;;;0.68;;
67132;SDS011;54052;53.542;49.408;2022-10-16T10:26:07;6.70;;;0.77;;
67132;SDS011;54052;53.542;49.408;2022-10-16T10:31:38;2.42;;;0.60;;
67132;SDS011;54052;53.542;49.408;2022-10-16T10:37:36;4.60;;;0.82;;
67132;SDS011;54052;53.542;49.408;2022-10-16T10:49:02;1.63;;;0.70;;
67132;SDS011;54052;53.542;49.408;2022-10-16T10:51:57;4.28;;;1.10;;
67132;SDS011;54052;53.542;49.408;2022-10-16T11:02:42;5.32;;;0.52;;
67132;SDS011;54052;53.542;49.408;2022-10-16T11:08:18;2.65;;;0.65;;
67132;SDS011;54052;53.542;49.408;2022-10-16T11:10:54;2.05;;;0.70;;
67132;SDS011;54052;53.542;49.408;2022-10-16T11:14:08;9.65;;;0.90;;
67132;SDS011;54052;53.542;49.408;2022-10-16T11:16:43;5.18;;;0.75;;
67132;SDS011;54052;53.542;49.408;2022-10-16T11:24:36;4.68;;;1.23;;
67132;SDS011;54052;53.542;49.408;2022-10-16T11:27:17;1.95;;;0.77;;
67132;SDS011;54052;53.542;49.408;2022-10-16T11:30:02;2.00;;;0.73;;
67132;SDS011;54052;53.542;49.408;2022-10-16T11:32:46;0.98;;;0.52;;
67132;SDS011;54052;53.542;49.408;2022-10-16T11:35:44;4.85;;;0.55;;
67132;SDS011;54052;53.542;49.408;2022-10-16T11:38:35;3.30;;;1.10;;
67132;SDS011;54052;53.542;49.408;2022-10-16T11:41:42;2.80;;;1.30;;
67132;SDS011;54052;53.542;49.408;2022-10-16T11:50:13;2.03;;;1.00;;
67132;SDS011;54052;53.542;49.408;2022-10-16T11:53:11;5.30;;;2.00;;
67132;SDS011;54052;53.542;49.408;2022-10-16T11:55:49;16.30;;;4.07;;
67132;SDS011;54052;53.542;49.408;2022-10-16T12:03:39;9.43;;;3.17;;
67132;SDS011;54052;53.542;49.408;2022-10-16T12:06:34;3.97;;;2.17;;
67132;SDS011;54052;53.542;49.408;2022-10-16T12:09:32;13.05;;;4.63;;
67132;SDS011;54052;53.542;49.408;2022-10-16T12:12:23;6.88;;;1.63;;
67132;SDS011;54052;53.542;49.408;2022-10-16T12:15:27;6.65;;;2.00;;
67132;SDS011;54052;53.542;49.408;2022-10-16T12:18:00;4.78;;;1.85;;
67132;SDS011;54052;53.542;49.408;2022-10-16T12:20:32;3.70;;;1.35;;
67132;SDS011;54052;53.542;49.408;2022-10-16T12:23:07;4.03;;;1.35;;
67132;SDS011;54052;53.542;49.408;2022-10-16T12:25:56;3.85;;;0.80;;
67132;SDS011;54052;53.542;49.408;2022-10-16T12:28:30;5.45;;;1.08;;
67132;SDS011;54052;53.542;49.408;2022-10-16T12:31:04;3.67;;;1.33;;
67132;SDS011;54052;53.542;49.408;2022-10-16T12:33:56;1.85;;;1.08;;
67132;SDS011;54052;53.542;49.408;2022-10-16T12:36:32;4.28;;;1.75;;
67132;SDS011;54052;53.542;49.408;2022-10-16T12:39:05;5.90;;;1.13;;
67132;SDS011;54052;53.542;49.408;2022-10-16T12:41:36;2.72;;;1.42;;
67132;SDS011;54052;53.542;49.408;2022-10-16T12:44:21;6.00;;;2.05;;
67132;SDS011;54052;53.542;49.408;2022-10-16T12:46:55;3.35;;;1.40;;
67132;SDS011;54052;53.542;49.408;2022-10-16T12:49:36;2.90;;;1.15;;
67132;SDS011;54052;53.542;49.408;2022-10-16T12:52:28;3.75;;;1.35;;
67132;SDS011;54052;53.542;49.408;2022-10-16T12:54:59;5.40;;;1.33;;
67132;SDS011;54052;53.542;49.408;2022-10-16T12:57:41;5.15;;;1.10;;
67132;SDS011;54052;53.542;49.408;2022-10-16T13:00:41;9.90;;;1.85;;
67132;SDS011;54052;53.542;49.408;2022-10-16T13:03:53;84.28;;;32.67;;
67132;SDS011;54052;53.542;49.408;2022-10-16T13:09:55;83.15;;;30.10;;
67132;SDS011;54052;53.542;49.408;2022-10-16T13:21:11;31.20;;;9.73;;
67132;SDS011;54052;53.542;49.408;2022-10-16T13:23:59;38.33;;;10.10;;
67132;SDS011;54052;53.542;49.408;2022-10-16T13:29:19;10.32;;;3.10;;
67132;SDS011;54052;53.542;49.408;2022-10-16T13:31:51;10.23;;;2.75;;
67132;SDS011;54052;53.542;49.408;2022-10-16T13:34:22;12.45;;;3.30;;
67132;SDS011;54052;53.542;49.408;2022-10-16T13:36:54;4.97;;;2.45;;
67132;SDS011;54052;53.542;49.408;2022-10-16T13:39:26;7.40;;;2.63;;
67132;SDS011;54052;53.542;49.408;2022-10-16T13:44:43;9.85;;;4.32;;
67132;SDS011;54052;53.542;49.408;2022-10-16T13:47:19;8.98;;;2.63;;
67132;SDS011;54052;53.542;49.408;2022-10-16T13:50:02;5.65;;;2.00;;
67132;SDS011;54052;53.542;49.408;2022-10-16T13:52:34;8.98;;;2.78;;
67132;SDS011;54052;53.542;49.408;2022-10-16T13:55:12;15.48;;;3.22;;
67132;SDS011;54052;53.542;49.408;2022-10-16T13:57:48;16.20;;;4.28;;
67132;SDS011;54052;53.542;49.408;2022-10-16T14:00:24;19.58;;;4.97;;
67132;SDS011;54052;53.542;49.408;2022-10-16T14:03:11;12.95;;;3.80;;
67132;SDS011;54052;53.542;49.408;2022-10-16T14:05:49;12.75;;;4.57;;
67132;SDS011;54052;53.542;49.408;2022-10-16T14:08:22;15.00;;;4.13;;
67132;SDS011;54052;53.542;49.408;2022-10-16T14:13:38;13.73;;;5.00;;
67132;SDS011;54052;53.542;49.408;2022-10-16T14:16:18;23.27;;;9.27;;
67132;SDS011;54052;53.542;49.408;2022-10-16T14:19:04;31.48;;;4.85;;
67132;SDS011;54052;53.542;49.408;2022-10-16T14:21:37;19.50;;;6.47;;
67132;SDS011;54052;53.542;49.408;2022-10-16T14:27:01;16.67;;;4.68;;
67132;SDS011;54052;53.542;49.408;2022-10-16T14:32:55;22.45;;;7.68;;
67132;SDS011;54052;53.542;49.408;2022-10-16T14:35:33;20.52;;;5.30;;
67132;SDS011;54052;53.542;49.408;2022-10-16T14:38:06;56.15;;;14.30;;
67132;SDS011;54052;53.542;49.408;2022-10-16T14:40:49;30.77;;;12.82;;
67132;SDS011;54052;53.542;49.408;2022-10-16T14:43:22;79.37;;;29.40;;
67132;SDS011;54052;53.542;49.408;2022-10-16T14:46:14;94.20;;;32.85;;
67132;SDS011;54052;53.542;49.408;2022-10-16T14:48:52;95.57;;;35.65;;
67132;SDS011;54052;53.542;49.408;2022-10-16T14:51:35;131.65;;;52.25;;
67132;SDS011;54052;53.542;49.408;2022-10-16T14:54:08;95.70;;;39.92;;
67132;SDS011;54052;53.542;49.408;2022-10-16T14:59:27;92.40;;;35.15;;
67132;SDS011;54052;53.542;49.408;2022-10-16T15:02:16;89.03;;;35.03;;
67132;SDS011;54052;53.542;49.408;2022-10-16T15:05:14;55.10;;;24.40;;
67132;SDS011;54052;53.542;49.408;2022-10-16T15:07:45;50.92;;;20.15;;
67132;SDS011;54052;53.542;49.408;2022-10-16T15:10:17;36.03;;;16.63;;
67132;SDS011;54052;53.542;49.408;2022-10-16T15:12:49;30.58;;;14.50;;
67132;SDS011;54052;53.542;49.408;2022-10-16T15:15:30;39.60;;;15.85;;
67132;SDS011;54052;53.542;49.408;2022-10-16T15:18:05;47.78;;;18.40;;
67132;SDS011;54052;53.542;49.408;2022-10-16T15:20:37;47.45;;;25.80;;
67132;SDS011;54052;53.542;49.408;2022-10-16T15:23:16;53.25;;;31.60;;
67132;SDS011;54052;53.542;49.408;2022-10-16T15:25:54;69.20;;;36.47;;
67132;SDS011;54052;53.542;49.408;2022-10-16T15:28:26;73.40;;;33.08;;
67132;SDS011;54052;53.542;49.408;2022-10-16T15:30:58;57.13;;;31.38;;
67132;SDS011;54052;53.542;49.408;2022-10-16T15:33:29;57.17;;;27.95;;
67132;SDS011;54052;53.542;49.408;2022-10-16T15:36:04;55.63;;;26.48;;
67132;SDS011;54052;53.542;49.408;2022-10-16T15:38:36;37.03;;;19.08;;
67132;SDS011;54052;53.542;49.408;2022-10-16T15:41:07;39.55;;;18.85;;
67132;SDS011;54052;53.542;49.408;2022-10-16T15:43:38;43.60;;;18.65;;
67132;SDS011;54052;53.542;49.408;2022-10-16T15:46:11;37.00;;;18.58;;
67132;SDS011;54052;53.542;49.408;2022-10-16T15:48:45;35.40;;;17.23;;
67132;SDS011;54052;53.542;49.408;2022-10-16T15:51:17;40.13;;;14.75;;
67132;SDS011;54052;53.542;49.408;2022-10-16T15:53:49;38.85;;;13.40;;
67132;SDS011;54052;53.542;49.408;2022-10-16T15:56:21;30.05;;;13.18;;
67132;SDS011;54052;53.542;49.408;2022-10-16T15:58:54;25.98;;;13.10;;
67132;SDS011;54052;53.542;49.408;2022-10-16T16:01:26;35.20;;;14.80;;
67132;SDS011;54052;53.542;49.408;2022-10-16T16:06:29;29.98;;;12.23;;
67132;SDS011;54052;53.542;49.408;2022-10-16T16:09:00;40.72;;;14.52;;
67132;SDS011;54052;53.542;49.408;2022-10-16T16:11:32;38.50;;;18.02;;
67132;SDS011;54052;53.542;49.408;2022-10-16T16:14:14;43.83;;;17.48;;
67132;SDS011;54052;53.542;49.408;2022-10-16T16:16:45;29.05;;;14.15;;
67132;SDS011;54052;53.542;49.408;2022-10-16T16:19:17;27.77;;;11.00;;
67132;SDS011;54052;53.542;49.408;2022-10-16T16:21:51;24.05;;;11.35;;
67132;SDS011;54052;53.542;49.408;2022-10-16T16:24:23;32.55;;;11.75;;
67132;SDS011;54052;53.542;49.408;2022-10-16T16:26:54;28.15;;;12.25;;
67132;SDS011;54052;53.542;49.408;2022-10-16T16:29:25;19.33;;;8.50;;
67132;SDS011;54052;53.542;49.408;2022-10-16T16:31:56;17.58;;;7.90;;
67132;SDS011;54052;53.542;49.408;2022-10-16T16:34:29;19.42;;;8.25;;
67132;SDS011;54052;53.542;49.408;2022-10-16T16:37:01;23.58;;;9.85;;
67132;SDS011;54052;53.542;49.408;2022-10-16T16:39:32;27.38;;;9.27;;
67132;SDS011;54052;53.542;49.408;2022-10-16T16:42:04;22.92;;;9.30;;
67132;SDS011;54052;53.542;49.408;2022-10-16T16:47:08;22.98;;;7.22;;
67132;SDS011;54052;53.542;49.408;2022-10-16T16:49:40;14.53;;;4.97;;
67132;SDS011;54052;53.542;49.408;2022-10-16T16:52:12;12.07;;;5.15;;
67132;SDS011;54052;53.542;49.408;2022-10-16T16:54:44;10.13;;;5.05;;
67132;SDS011;54052;53.542;49.408;2022-10-16T16:57:22;11.55;;;4.97;;
67132;SDS011;54052;53.542;49.408;2022-10-16T16:59:53;12.88;;;4.88;;
67132;SDS011;54052;53.542;49.408;2022-10-16T17:02:24;15.02;;;5.65;;